Time;durP1;ratioP1;P1;durP2;ratioP2;P2;SDS_P1;SDS_P2;PMS_P1;PMS_P2;Temp;Humidity;BMP_temperature;BMP_pressure;BME280_temperature;BME280_humidity;BME280_pressure;Samples;Min_cycle;Max_cycle;Signal;HPM_P1;HPM_P2
2022/06/26 00:01:37;;;;;;;;;;;;;;;17.92;86.91;100783.50;5023982;28;20376;-78
2022/06/26 00:04:03;;;;;;;;;;;;;;;17.91;87.26;100766.03;5012429;28;19960;-78
2022/06/26 00:06:28;;;;;;;;;;;;;;;17.89;86.84;100773.13;5001380;28;19977;-80
2022/06/26 00:08:53;;;;;;;;;;;;;;;17.89;86.68;100761.75;5026664;28;20405;-80
2022/06/26 00:11:19;;;;;;;;;;;;;;;17.84;86.41;100766.41;5024914;28;19928;-77
2022/06/26 00:13:44;;;;;;;;;;;;;;;17.85;86.31;100770.75;5025286;28;19925;-77
2022/06/26 00:16:09;;;;;;;;;;;;;;;17.87;86.31;100777.63;5020359;28;19917;-77
2022/06/26 00:18:35;;;;;;;;;;;;;;;17.87;86.53;100788.13;5021440;28;19925;-77
2022/06/26 00:21:00;;;;;;;;;;;;;;;17.81;86.51;100793.69;5023384;28;19931;-77
2022/06/26 00:23:26;;;;;;;;;;;;;;;17.85;86.14;100797.03;5018854;28;19925;-77
2022/06/26 00:25:51;;;;;;;;;;;;;;;17.78;86.84;100799.09;5030878;28;19956;-78
2022/06/26 00:28:16;;;;;;;;;;;;;;;17.82;86.83;100803.31;5018302;28;19932;-78
2022/06/26 00:30:42;;;;;;;;;;;;;;;17.82;86.58;100805.06;5028646;28;19920;-78
2022/06/26 00:33:07;;;;;;;;;;;;;;;17.81;86.80;100805.97;5015849;28;19925;-78
2022/06/26 00:35:32;;;;;;;;;;;;;;;17.80;86.72;100817.44;5030489;28;19932;-78
2022/06/26 00:37:57;;;;;;;;;;;;;;;17.79;86.54;100815.72;5018131;28;19926;-78
2022/06/26 00:40:23;;;;;;;;;;;;;;;17.80;86.67;100809.56;5006904;28;19943;-78
2022/06/26 00:42:48;;;;;;;;;;;;;;;17.81;86.66;100803.34;5022266;28;19925;-78
2022/06/26 00:45:14;;;;;;;;;;;;;;;17.80;86.72;100813.00;5023343;28;19987;-77
2022/06/26 00:47:40;;;;;;;;;;;;;;;17.82;86.64;100815.56;5006572;28;20038;-76
2022/06/26 00:50:07;;;;;;;;;;;;;;;17.75;86.30;100804.53;5018821;28;19929;-78
2022/06/26 00:52:33;;;;;;;;;;;;;;;17.74;86.41;100808.06;5006325;28;20388;-77
2022/06/26 00:54:59;;;;;;;;;;;;;;;17.81;86.64;100816.50;5027425;28;20467;-79
2022/06/26 00:57:24;;;;;;;;;;;;;;;17.81;86.67;100819.13;5030176;28;19928;-80
2022/06/26 00:59:49;;;;;;;;;;;;;;;17.80;86.11;100815.63;5017117;28;19932;-79
2022/06/26 01:02:15;;;;;;;;;;;;;;;17.78;86.74;100817.50;5031118;28;20012;-80
2022/06/26 01:04:41;;;;;;;;;;;;;;;17.79;86.67;100810.47;5008837;28;19925;-76
2022/06/26 01:07:06;;;;;;;;;;;;;;;17.75;86.68;100808.91;5023342;28;20016;-77
2022/06/26 01:09:31;;;;;;;;;;;;;;;17.81;86.68;100811.25;5020049;28;19928;-78
2022/06/26 01:11:57;;;;;;;;;;;;;;;17.79;86.62;100821.84;5023610;28;19932;-78
2022/06/26 01:14:22;;;;;;;;;;;;;;;17.70;86.64;100822.31;5017774;28;20036;-78
2022/06/26 01:16:49;;;;;;;;;;;;;;;17.74;86.56;100829.09;5021390;28;19932;-78
2022/06/26 01:19:18;;;;;;;;;;;;;;;17.71;86.30;100834.50;5024273;28;19948;-77
2022/06/26 01:21:45;;;;;;;;;;;;;;;17.68;86.67;100831.19;5031058;28;19920;-77
2022/06/26 01:24:10;;;;;;;;;;;;;;;17.72;86.56;100833.56;5030923;28;19932;-77
2022/06/26 01:26:36;;;;;;;;;;;;;;;17.75;86.60;100824.69;5012019;28;19931;-77
2022/06/26 01:29:02;;;;;;;;;;;;;;;17.76;86.95;100829.88;5028698;28;19925;-78
2022/06/26 01:31:28;;;;;;;;;;;;;;;17.74;86.65;100839.59;5019708;28;20024;-78
2022/06/26 01:33:53;;;;;;;;;;;;;;;17.72;86.72;100837.97;5026538;28;20066;-79
2022/06/26 01:36:19;;;;;;;;;;;;;;;17.79;86.78;100849.88;5022177;28;19925;-78
2022/06/26 01:38:44;;;;;;;;;;;;;;;17.74;85.97;100857.97;5021596;28;19925;-78
2022/06/26 01:41:10;;;;;;;;;;;;;;;17.72;86.34;100867.72;5032733;28;20612;-78
2022/06/26 01:43:36;;;;;;;;;;;;;;;17.68;86.43;100867.97;5021325;28;19956;-78
2022/06/26 01:46:03;;;;;;;;;;;;;;;17.69;86.41;100877.53;5012894;28;19929;-79
2022/06/26 01:48:29;;;;;;;;;;;;;;;17.66;86.70;100872.44;5014482;28;20396;-77
2022/06/26 01:50:55;;;;;;;;;;;;;;;17.70;86.40;100881.88;5020376;28;20463;-77
2022/06/26 01:53:21;;;;;;;;;;;;;;;17.65;86.81;100876.81;5020333;28;20023;-77
2022/06/26 01:55:46;;;;;;;;;;;;;;;17.60;86.61;100886.72;5021902;28;20000;-77
2022/06/26 01:58:13;;;;;;;;;;;;;;;17.62;86.02;100876.97;5025220;28;19957;-77
2022/06/26 02:00:40;;;;;;;;;;;;;;;17.61;85.95;100877.91;5027222;28;19921;-77
2022/06/26 02:03:05;;;;;;;;;;;;;;;17.66;86.00;100875.06;5025891;28;20011;-77
2022/06/26 02:05:31;;;;;;;;;;;;;;;17.60;86.25;100853.41;5018290;28;20024;-78
2022/06/26 02:07:56;;;;;;;;;;;;;;;17.61;86.02;100864.78;5012792;28;19936;-78
2022/06/26 02:15:52;;;;;;;;;;;;;;;17.60;86.03;100876.19;5035099;28;19947;-78
2022/06/26 02:18:17;;;;;;;;;;;;;;;17.58;85.99;100871.00;5021786;28;19917;-79
2022/06/26 02:20:42;;;;;;;;;;;;;;;17.52;86.43;100868.69;5009870;28;19926;-79
2022/06/26 02:23:09;;;;;;;;;;;;;;;17.50;86.01;100867.88;5020632;28;20008;-77
2022/06/26 02:25:34;;;;;;;;;;;;;;;17.58;85.88;100865.75;5022941;28;19940;-77
2022/06/26 02:27:59;;;;;;;;;;;;;;;17.49;85.84;100857.47;5016125;28;19922;-77
2022/06/26 02:30:25;;;;;;;;;;;;;;;17.53;85.97;100859.84;5015977;28;19936;-77
2022/06/26 02:32:50;;;;;;;;;;;;;;;17.42;86.11;100856.03;5023650;28;19925;-77
2022/06/26 02:35:15;;;;;;;;;;;;;;;17.45;85.73;100874.28;5027375;28;20325;-77
2022/06/26 02:37:41;;;;;;;;;;;;;;;17.44;85.80;100869.97;5020084;28;20019;-77
2022/06/26 02:40:06;;;;;;;;;;;;;;;17.45;85.24;100855.88;5018492;28;19921;-77
2022/06/26 02:42:32;;;;;;;;;;;;;;;17.41;85.05;100863.06;5021077;28;20030;-77
2022/06/26 02:44:57;;;;;;;;;;;;;;;17.46;85.31;100865.47;5014909;28;19924;-77
2022/06/26 02:47:22;;;;;;;;;;;;;;;17.46;85.07;100865.47;5019133;28;19969;-77
2022/06/26 02:49:48;;;;;;;;;;;;;;;17.44;84.80;100851.59;5021828;28;20073;-77
2022/06/26 02:52:13;;;;;;;;;;;;;;;17.43;85.17;100849.88;5015849;28;19991;-78
2022/06/26 02:54:38;;;;;;;;;;;;;;;17.50;85.17;100861.78;5012648;28;19916;-78
2022/06/26 02:57:04;;;;;;;;;;;;;;;17.47;85.27;100867.19;5018901;28;19928;-78
2022/06/26 02:59:29;;;;;;;;;;;;;;;17.45;84.83;100877.75;5002761;28;19928;-78
2022/06/26 03:01:54;;;;;;;;;;;;;;;17.37;84.97;100879.03;5026620;28;19929;-78
2022/06/26 03:04:20;;;;;;;;;;;;;;;17.39;85.31;100887.69;5034164;28;20587;-78
2022/06/26 03:06:45;;;;;;;;;;;;;;;17.38;85.29;100880.75;5031047;28;19967;-78
2022/06/26 03:09:10;;;;;;;;;;;;;;;17.36;85.03;100872.09;5022040;28;19971;-78
2022/06/26 03:11:36;;;;;;;;;;;;;;;17.31;84.83;100871.47;5023647;28;19928;-79
2022/06/26 03:14:02;;;;;;;;;;;;;;;17.38;84.82;100878.97;5016999;28;19956;-79
2022/06/26 03:16:27;;;;;;;;;;;;;;;17.32;84.62;100887.13;5021318;28;19975;-78
2022/06/26 03:18:52;;;;;;;;;;;;;;;17.27;84.59;100896.13;5022758;28;22151;-78
2022/06/26 03:21:18;;;;;;;;;;;;;;;17.28;84.55;100905.72;5013110;28;20295;-78
2022/06/26 03:24:01;;;;;;;;;;;;;;;17.30;84.56;100899.47;5024243;28;20608;-80
2022/06/26 03:26:30;;;;;;;;;;;;;;;17.28;84.49;100890.84;5024904;28;20375;-79
2022/06/26 03:28:56;;;;;;;;;;;;;;;17.29;84.31;100899.56;5010291;28;20396;-77
2022/06/26 03:31:21;;;;;;;;;;;;;;;17.28;83.90;100892.59;5028927;28;19940;-78
2022/06/26 03:33:47;;;;;;;;;;;;;;;17.26;83.91;100884.81;5027947;28;20008;-78
2022/06/26 03:36:12;;;;;;;;;;;;;;;17.23;84.08;100912.97;5013344;28;19932;-79
2022/06/26 03:38:37;;;;;;;;;;;;;;;17.24;84.11;100910.28;5022606;28;19921;-80
2022/06/26 03:41:03;;;;;;;;;;;;;;;17.26;84.03;100931.22;5021589;28;19929;-80
2022/06/26 03:43:28;;;;;;;;;;;;;;;17.24;83.76;100927.78;5024767;28;20782;-79
2022/06/26 03:45:54;;;;;;;;;;;;;;;17.22;84.07;100930.50;5020759;28;20389;-77
2022/06/26 03:48:19;;;;;;;;;;;;;;;17.18;84.44;100930.69;5023022;28;19931;-77
2022/06/26 03:50:44;;;;;;;;;;;;;;;17.17;84.28;100935.13;5030230;28;19929;-76
2022/06/26 03:53:10;;;;;;;;;;;;;;;17.19;83.77;100929.78;5013233;28;19925;-78
2022/06/26 03:55:36;;;;;;;;;;;;;;;17.23;83.54;100932.22;5039078;28;19978;-77
2022/06/26 03:58:02;;;;;;;;;;;;;;;17.25;84.12;100930.38;5026986;28;20396;-77
2022/06/26 04:00:27;;;;;;;;;;;;;;;17.19;84.49;100935.88;5027079;28;19932;-77
2022/06/26 04:02:53;;;;;;;;;;;;;;;17.22;84.13;100934.91;5020216;28;19925;-77
2022/06/26 04:05:18;;;;;;;;;;;;;;;17.23;83.61;100932.22;5022255;28;20368;-77
2022/06/26 04:07:43;;;;;;;;;;;;;;;17.29;83.30;100941.59;5011361;28;19976;-77
2022/06/26 04:10:09;;;;;;;;;;;;;;;17.32;83.22;100946.69;5025775;28;20012;-79
2022/06/26 04:12:34;;;;;;;;;;;;;;;17.25;83.67;100945.25;5006239;28;19925;-77
2022/06/26 04:14:59;;;;;;;;;;;;;;;17.32;83.22;100944.06;5004885;28;19978;-77
2022/06/26 04:17:24;;;;;;;;;;;;;;;17.21;82.78;100947.16;5017979;28;19964;-77
2022/06/26 04:19:50;;;;;;;;;;;;;;;17.33;82.60;100956.25;5010092;28;20012;-77
2022/06/26 04:22:15;;;;;;;;;;;;;;;17.28;82.82;100948.59;5021350;28;19945;-77
2022/06/26 04:24:41;;;;;;;;;;;;;;;17.25;83.65;100951.38;5028167;28;19944;-77
2022/06/26 04:27:06;;;;;;;;;;;;;;;17.24;82.91;100947.03;5024743;28;19928;-77
2022/06/26 04:29:31;;;;;;;;;;;;;;;17.36;82.45;100958.75;5033923;28;19925;-77
2022/06/26 04:31:57;;;;;;;;;;;;;;;17.27;82.68;100951.28;5014532;28;19925;-77
2022/06/26 04:34:22;;;;;;;;;;;;;;;17.16;82.76;100957.03;5019523;28;20563;-77
2022/06/26 04:36:47;;;;;;;;;;;;;;;17.20;82.67;100965.63;5021131;28;19917;-77
2022/06/26 04:39:13;;;;;;;;;;;;;;;17.23;82.27;100966.34;5030479;28;20377;-77
2022/06/26 04:41:39;;;;;;;;;;;;;;;17.35;80.81;100962.31;5026224;28;20032;-76
2022/06/26 04:44:05;;;;;;;;;;;;;;;17.22;82.61;100961.16;5007491;28;19956;-77
2022/06/26 04:46:31;;;;;;;;;;;;;;;17.34;81.43;100958.81;5021494;28;19925;-79
2022/06/26 04:48:56;;;;;;;;;;;;;;;17.37;80.83;100968.34;5026514;28;19925;-77
2022/06/26 04:51:21;;;;;;;;;;;;;;;17.25;81.31;100961.88;5026025;28;20002;-77
2022/06/26 04:53:47;;;;;;;;;;;;;;;17.16;79.56;100961.44;5007518;28;20392;-77
2022/06/26 04:56:12;;;;;;;;;;;;;;;17.01;81.78;100963.81;5021706;28;20063;-77
2022/06/26 04:58:38;;;;;;;;;;;;;;;17.15;79.57;100970.22;5026385;28;20023;-77
2022/06/26 05:01:03;;;;;;;;;;;;;;;17.17;79.64;100960.50;5007833;28;19925;-77
2022/06/26 05:03:29;;;;;;;;;;;;;;;16.98;80.10;100970.97;5022117;28;19929;-77
2022/06/26 05:05:54;;;;;;;;;;;;;;;17.10;79.53;100970.44;5008806;28;20444;-77
2022/06/26 05:08:20;;;;;;;;;;;;;;;17.24;79.56;100970.66;5019203;28;19929;-77
2022/06/26 05:10:45;;;;;;;;;;;;;;;17.33;78.57;100975.50;5040647;28;19925;-77
2022/06/26 05:13:10;;;;;;;;;;;;;;;17.36;78.79;100977.97;5033045;28;19979;-77
2022/06/26 05:15:36;;;;;;;;;;;;;;;17.08;78.29;100979.28;5025111;28;19931;-78
2022/06/26 05:18:01;;;;;;;;;;;;;;;17.30;76.48;100974.78;5035556;28;19929;-78
2022/06/26 05:20:26;;;;;;;;;;;;;;;17.34;75.62;100968.47;5035818;28;20010;-78
2022/06/26 05:22:52;;;;;;;;;;;;;;;17.29;75.13;100967.84;5034630;28;19928;-80
2022/06/26 05:25:17;;;;;;;;;;;;;;;17.38;75.37;100968.25;5044244;28;19928;-78
2022/06/26 05:27:42;;;;;;;;;;;;;;;17.31;75.35;100966.84;5039144;28;19928;-78
2022/06/26 05:30:08;;;;;;;;;;;;;;;17.35;75.23;100971.00;5027154;28;19997;-78
2022/06/26 05:32:33;;;;;;;;;;;;;;;17.35;74.14;100970.19;5037488;28;20019;-78
2022/06/26 05:34:59;;;;;;;;;;;;;;;17.39;74.01;100983.09;5038266;28;19925;-78
2022/06/26 05:37:24;;;;;;;;;;;;;;;17.40;74.37;100997.94;5037604;28;19932;-78
2022/06/26 05:39:49;;;;;;;;;;;;;;;17.42;73.96;100998.72;5041373;28;19928;-77
2022/06/26 05:42:14;;;;;;;;;;;;;;;17.41;74.70;101001.41;5040074;28;19921;-77
2022/06/26 05:44:40;;;;;;;;;;;;;;;17.31;74.91;101010.63;5042375;28;21806;-80
2022/06/26 05:47:05;;;;;;;;;;;;;;;17.33;73.60;101019.28;5039425;28;20331;-77
2022/06/26 05:49:31;;;;;;;;;;;;;;;17.43;74.88;101031.09;5038220;28;20419;-77
2022/06/26 05:51:56;;;;;;;;;;;;;;;17.38;74.24;101031.28;5034460;28;19920;-77
2022/06/26 05:54:21;;;;;;;;;;;;;;;17.32;74.08;101034.16;5041083;28;19917;-77
2022/06/26 05:56:47;;;;;;;;;;;;;;;17.17;75.29;101032.25;5040365;28;19932;-80
2022/06/26 05:59:12;;;;;;;;;;;;;;;17.32;73.81;101038.59;5020847;28;19936;-80
2022/06/26 06:01:37;;;;;;;;;;;;;;;17.21;75.42;101035.56;5038108;28;20342;-80
2022/06/26 06:04:03;;;;;;;;;;;;;;;17.30;74.24;101043.03;5033197;28;19929;-80
2022/06/26 06:06:28;;;;;;;;;;;;;;;17.22;73.17;101038.13;5041232;28;20000;-80
2022/06/26 06:08:54;;;;;;;;;;;;;;;17.22;74.56;101035.50;5040027;28;20280;-80
2022/06/26 06:11:19;;;;;;;;;;;;;;;17.11;74.26;101042.16;5038209;28;19921;-80
2022/06/26 06:13:44;;;;;;;;;;;;;;;17.18;74.88;101044.44;5036100;28;20380;-77
2022/06/26 06:16:10;;;;;;;;;;;;;;;17.19;73.77;101043.53;5045631;28;19973;-77
2022/06/26 06:18:35;;;;;;;;;;;;;;;17.12;73.88;101052.56;5042268;28;20021;-77
2022/06/26 06:21:01;;;;;;;;;;;;;;;17.16;72.27;101059.41;5046605;28;19917;-78
2022/06/26 06:23:26;;;;;;;;;;;;;;;16.87;73.03;101080.81;5045472;28;19921;-77
2022/06/26 06:25:51;;;;;;;;;;;;;;;17.02;72.38;101077.53;5043522;28;20443;-77
2022/06/26 06:28:18;;;;;;;;;;;;;;;17.14;72.02;101087.50;5038881;28;20343;-78
2022/06/26 06:30:44;;;;;;;;;;;;;;;17.16;71.54;101090.06;5047813;28;19964;-77
2022/06/26 06:33:09;;;;;;;;;;;;;;;17.35;71.66;101083.94;5031296;28;19928;-80
2022/06/26 06:35:34;;;;;;;;;;;;;;;17.25;72.67;101094.91;5028744;28;20016;-78
2022/06/26 06:38:00;;;;;;;;;;;;;;;17.22;73.69;101095.03;5032128;28;19966;-78
2022/06/26 06:40:25;;;;;;;;;;;;;;;17.32;71.82;101091.94;5047699;28;19932;-78
2022/06/26 06:42:50;;;;;;;;;;;;;;;17.38;71.98;101112.69;5043646;28;20392;-78
2022/06/26 06:45:16;;;;;;;;;;;;;;;17.36;72.34;101116.28;5045522;28;19925;-78
2022/06/26 06:47:41;;;;;;;;;;;;;;;17.37;71.36;101116.25;5041095;28;20089;-78
2022/06/26 06:50:06;;;;;;;;;;;;;;;17.44;71.94;101120.28;5026769;28;19924;-79
2022/06/26 06:52:32;;;;;;;;;;;;;;;17.33;72.09;101121.69;5046424;28;20011;-80
2022/06/26 06:54:57;;;;;;;;;;;;;;;17.23;69.13;101123.88;5042483;28;20388;-78
2022/06/26 06:57:22;;;;;;;;;;;;;;;17.37;69.61;101126.75;5044046;28;19924;-78
2022/06/26 06:59:48;;;;;;;;;;;;;;;17.34;69.46;101123.41;5046068;28;20537;-79
2022/06/26 07:02:13;;;;;;;;;;;;;;;17.42;69.74;101123.91;5040145;28;19976;-80
2022/06/26 07:04:38;;;;;;;;;;;;;;;17.31;69.67;101120.91;5040842;28;19994;-80
2022/06/26 07:07:04;;;;;;;;;;;;;;;17.41;68.51;101123.06;5039723;28;20029;-78
2022/06/26 07:09:29;;;;;;;;;;;;;;;17.42;69.52;101135.28;5039422;28;20023;-80
2022/06/26 07:11:55;;;;;;;;;;;;;;;17.47;69.19;101128.03;5045327;28;19935;-78
2022/06/26 07:14:20;;;;;;;;;;;;;;;17.54;68.90;101131.25;5044478;28;19927;-78
2022/06/26 07:16:47;;;;;;;;;;;;;;;17.55;69.55;101136.47;5039568;28;19925;-78
2022/06/26 07:19:13;;;;;;;;;;;;;;;17.51;69.06;101134.88;5037126;28;19932;-78
2022/06/26 07:21:38;;;;;;;;;;;;;;;17.59;69.00;101131.94;5046472;28;19929;-80
2022/06/26 07:24:04;;;;;;;;;;;;;;;17.55;69.66;101127.72;5036685;28;19932;-80
2022/06/26 07:26:29;;;;;;;;;;;;;;;17.59;69.39;101121.41;5046640;28;20039;-78
2022/06/26 07:28:55;;;;;;;;;;;;;;;17.59;68.96;101124.03;5041876;28;19939;-77
2022/06/26 07:31:20;;;;;;;;;;;;;;;17.73;68.91;101119.06;5043479;28;19953;-79
2022/06/26 07:36:29;;;;;;;;;;;;;;;17.72;69.60;101122.59;5040059;28;19932;-77
2022/06/26 07:38:55;;;;;;;;;;;;;;;17.69;68.25;101117.47;5041298;28;19925;-77
2022/06/26 07:41:21;;;;;;;;;;;;;;;17.79;68.61;101115.28;5043585;28;19925;-76
2022/06/26 07:43:46;;;;;;;;;;;;;;;17.82;69.02;101121.28;5043043;28;19920;-76
2022/06/26 07:46:11;;;;;;;;;;;;;;;17.83;68.91;101122.13;5045761;28;19925;-77
2022/06/26 07:48:37;;;;;;;;;;;;;;;17.80;68.68;101124.91;5049637;28;19974;-77
2022/06/26 07:51:02;;;;;;;;;;;;;;;17.90;69.75;101118.28;5050446;28;20307;-77
2022/06/26 07:53:28;;;;;;;;;;;;;;;17.86;68.24;101119.34;5029572;28;19940;-77
2022/06/26 07:55:54;;;;;;;;;;;;;;;17.92;69.12;101124.31;5045650;28;19994;-77
2022/06/26 07:58:20;;;;;;;;;;;;;;;17.92;68.58;101117.28;5045436;28;19921;-77
2022/06/26 08:00:46;;;;;;;;;;;;;;;17.95;69.81;101119.78;5042125;28;19924;-77
2022/06/26 08:03:13;;;;;;;;;;;;;;;17.95;68.95;101126.78;5046630;28;19925;-77
2022/06/26 08:05:39;;;;;;;;;;;;;;;17.95;69.66;101135.53;5042677;28;19921;-77
2022/06/26 08:08:05;;;;;;;;;;;;;;;17.93;68.98;101140.03;5041891;28;19931;-79
2022/06/26 08:10:30;;;;;;;;;;;;;;;17.91;68.33;101147.13;5051360;28;19924;-79
2022/06/26 08:12:56;;;;;;;;;;;;;;;17.92;68.70;101155.84;5049050;28;19921;-79
2022/06/26 08:15:22;;;;;;;;;;;;;;;17.91;69.12;101157.66;5027642;28;19917;-78
2022/06/26 08:17:47;;;;;;;;;;;;;;;17.93;69.05;101153.16;5047826;28;19979;-78
2022/06/26 08:20:12;;;;;;;;;;;;;;;17.94;69.92;101152.25;5046241;28;20392;-78
2022/06/26 08:22:38;;;;;;;;;;;;;;;17.95;68.82;101146.06;5029734;28;20273;-78
2022/06/26 08:25:03;;;;;;;;;;;;;;;17.91;68.56;101148.91;5045446;28;19948;-78
2022/06/26 08:27:29;;;;;;;;;;;;;;;17.96;68.99;101152.16;5047797;28;19916;-78
2022/06/26 08:29:54;;;;;;;;;;;;;;;18.03;68.71;101153.59;5041819;28;19979;-79
2022/06/26 08:32:19;;;;;;;;;;;;;;;18.08;69.63;101162.13;5044984;28;19925;-79
2022/06/26 08:34:45;;;;;;;;;;;;;;;18.04;69.29;101169.28;5046590;28;19990;-79
2022/06/26 08:37:10;;;;;;;;;;;;;;;18.01;68.98;101168.56;5029513;28;20079;-79
2022/06/26 08:39:35;;;;;;;;;;;;;;;18.03;69.35;101167.63;5046231;28;19917;-78
2022/06/26 08:42:02;;;;;;;;;;;;;;;18.02;68.37;101170.28;5041297;28;19935;-77
2022/06/26 08:44:30;;;;;;;;;;;;;;;18.09;69.99;101183.06;5044907;28;19924;-76
2022/06/26 08:46:57;;;;;;;;;;;;;;;18.15;71.14;101177.53;5043485;28;19939;-79
2022/06/26 08:49:23;;;;;;;;;;;;;;;18.21;70.21;101170.31;5044825;28;19933;-77
2022/06/26 08:51:50;;;;;;;;;;;;;;;18.26;69.54;101173.56;5043081;28;19924;-76
2022/06/26 08:54:16;;;;;;;;;;;;;;;18.24;68.76;101167.53;5046539;28;20045;-76
2022/06/26 08:56:43;;;;;;;;;;;;;;;18.26;69.69;101165.69;5043357;28;20394;-76
2022/06/26 08:59:12;;;;;;;;;;;;;;;18.27;69.43;101170.03;5045550;28;19928;-76
2022/06/26 09:01:38;;;;;;;;;;;;;;;18.23;69.05;101169.31;5044584;28;19924;-77
2022/06/26 09:04:04;;;;;;;;;;;;;;;18.24;69.29;101178.06;5048091;28;20027;-77
2022/06/26 09:06:31;;;;;;;;;;;;;;;18.19;68.10;101180.88;5031464;28;20008;-76
2022/06/26 09:08:57;;;;;;;;;;;;;;;18.18;68.55;101190.53;5045804;28;19928;-77
2022/06/26 09:11:23;;;;;;;;;;;;;;;18.16;68.75;101187.16;5046787;28;19935;-77
2022/06/26 09:13:53;;;;;;;;;;;;;;;18.20;68.26;101193.13;5042983;28;19932;-77
2022/06/26 09:16:27;;;;;;;;;;;;;;;18.24;67.88;101184.19;5041753;28;20441;-77
2022/06/26 09:18:52;;;;;;;;;;;;;;;18.29;68.25;101190.06;5043806;28;19917;-77
2022/06/26 09:21:25;;;;;;;;;;;;;;;18.29;67.92;101189.22;5042698;28;19928;-76
2022/06/26 09:23:52;;;;;;;;;;;;;;;18.30;68.03;101181.28;5042412;28;19925;-77
2022/06/26 09:26:18;;;;;;;;;;;;;;;18.31;68.38;101190.84;5042196;28;19925;-76
2022/06/26 09:28:43;;;;;;;;;;;;;;;18.31;67.88;101184.72;5045971;28;19935;-77
2022/06/26 09:31:11;;;;;;;;;;;;;;;18.38;67.74;101191.41;5048641;28;19927;-77
2022/06/26 09:33:39;;;;;;;;;;;;;;;18.39;68.04;101193.13;5042024;28;19925;-76
2022/06/26 09:36:05;;;;;;;;;;;;;;;18.44;68.27;101201.66;5043471;28;20546;-77
2022/06/26 09:38:34;;;;;;;;;;;;;;;18.43;66.69;101182.38;5047345;28;19920;-77
2022/06/26 09:41:04;;;;;;;;;;;;;;;18.46;67.17;101184.91;5046229;28;20397;-77
2022/06/26 09:43:29;;;;;;;;;;;;;;;18.48;68.65;101200.63;5051569;28;20015;-77
2022/06/26 09:45:55;;;;;;;;;;;;;;;18.50;67.95;101207.53;5044282;28;20270;-78
2022/06/26 09:48:21;;;;;;;;;;;;;;;18.52;68.17;101203.03;5044328;28;19944;-76
2022/06/26 09:50:46;;;;;;;;;;;;;;;18.53;69.53;101203.91;5042055;28;20039;-77
2022/06/26 09:53:14;;;;;;;;;;;;;;;18.56;67.84;101201.13;5046333;28;19921;-80
2022/06/26 09:55:40;;;;;;;;;;;;;;;18.57;66.63;101194.94;5043763;28;19964;-80
2022/06/26 09:58:05;;;;;;;;;;;;;;;18.54;67.09;101200.34;5043600;28;19925;-78
2022/06/26 10:00:35;;;;;;;;;;;;;;;18.56;66.35;101204.59;5053903;28;19971;-78
2022/06/26 10:08:29;;;;;;;;;;;;;;;18.49;65.81;101204.94;5040957;28;19935;-79
2022/06/26 10:10:57;;;;;;;;;;;;;;;18.50;66.10;101204.91;5052556;28;20295;-78
2022/06/26 10:13:23;;;;;;;;;;;;;;;18.48;66.19;101198.84;5045759;28;19935;-78
2022/06/26 10:15:48;;;;;;;;;;;;;;;18.49;66.35;101200.56;5051587;28;20031;-79
2022/06/26 10:18:26;;;;;;;;;;;;;;;18.52;65.50;101202.19;5046177;28;20432;-77
2022/06/26 10:20:54;;;;;;;;;;;;;;;18.53;65.07;101193.38;5045328;28;19924;-79
2022/06/26 10:23:29;;;;;;;;;;;;;;;18.57;65.54;101194.94;5030939;28;20380;-78
2022/06/26 10:25:55;;;;;;;;;;;;;;;18.56;65.37;101203.75;5040270;28;20396;-77
2022/06/26 10:28:20;;;;;;;;;;;;;;;18.53;64.78;101198.63;5046944;28;19932;-78
2022/06/26 10:30:45;;;;;;;;;;;;;;;18.58;65.21;101200.13;5030424;28;19921;-76
2022/06/26 10:33:14;;;;;;;;;;;;;;;18.59;64.18;101193.09;5044992;28;19925;-76
2022/06/26 10:35:41;;;;;;;;;;;;;;;18.63;63.85;101192.00;5038913;28;19925;-76
2022/06/26 10:38:26;;;;;;;;;;;;;;;18.66;64.76;101186.59;5045037;28;19935;-76
2022/06/26 10:43:58;;;;;;;;;;;;;;;18.67;63.94;101198.81;5044817;28;20004;-78
2022/06/26 10:46:23;;;;;;;;;;;;;;;18.69;63.55;101197.81;5028824;28;19943;-78
2022/06/26 10:48:50;;;;;;;;;;;;;;;18.70;63.77;101198.69;5050089;28;19924;-78
2022/06/26 10:51:22;;;;;;;;;;;;;;;18.71;63.35;101200.41;5047275;28;20457;-76
2022/06/26 10:53:48;;;;;;;;;;;;;;;18.76;62.92;101200.16;5045447;28;19924;-76
2022/06/26 10:56:13;;;;;;;;;;;;;;;18.77;62.52;101202.75;5047347;28;20417;-77
2022/06/26 10:58:42;;;;;;;;;;;;;;;18.79;64.07;101203.50;5046176;28;20030;-77
2022/06/26 11:01:08;;;;;;;;;;;;;;;18.82;62.85;101206.00;5046930;28;20508;-77
2022/06/26 11:03:34;;;;;;;;;;;;;;;18.82;62.50;101206.00;5046937;28;19917;-78
2022/06/26 11:06:04;;;;;;;;;;;;;;;18.84;63.72;101212.03;5047330;28;20030;-77
2022/06/26 11:08:30;;;;;;;;;;;;;;;18.86;61.95;101210.19;5048286;28;19921;-77
2022/06/26 11:11:08;;;;;;;;;;;;;;;18.87;63.08;101218.94;5047306;28;20452;-76
2022/06/26 11:13:35;;;;;;;;;;;;;;;18.92;63.81;101215.16;5042002;28;19932;-76
2022/06/26 11:16:01;;;;;;;;;;;;;;;18.91;63.12;101212.59;5039518;28;20303;-76
2022/06/26 11:18:32;;;;;;;;;;;;;;;18.92;62.67;101209.91;5047378;28;19921;-77
2022/06/26 11:20:57;;;;;;;;;;;;;;;18.95;62.42;101219.41;5041800;28;19928;-79
2022/06/26 11:23:26;;;;;;;;;;;;;;;18.95;63.25;101212.38;5041879;28;19929;-79
2022/06/26 11:25:59;;;;;;;;;;;;;;;18.92;64.28;101217.78;5035529;28;20020;-76
2022/06/26 11:28:40;;;;;;;;;;;;;;;18.93;63.71;101208.09;5043407;28;19925;-76
2022/06/26 11:31:07;;;;;;;;;;;;;;;18.91;64.21;101210.81;5049460;28;19913;-76
2022/06/26 11:33:33;;;;;;;;;;;;;;;18.91;63.38;101212.59;5043662;28;20334;-76
2022/06/26 11:36:11;;;;;;;;;;;;;;;18.86;62.67;101219.88;5043152;28;19947;-76
2022/06/26 11:38:37;;;;;;;;;;;;;;;18.84;63.36;101206.75;5044807;28;20054;-76
2022/06/26 11:41:04;;;;;;;;;;;;;;;18.83;62.60;101210.34;5042060;28;19983;-76
2022/06/26 11:43:30;;;;;;;;;;;;;;;18.83;63.01;101201.59;5041396;28;19960;-76
2022/06/26 11:46:02;;;;;;;;;;;;;;;18.81;63.64;101203.44;5040071;28;20310;-76
2022/06/26 11:48:29;;;;;;;;;;;;;;;18.76;63.37;101190.50;5040411;28;19954;-76
2022/06/26 11:50:56;;;;;;;;;;;;;;;18.73;63.26;101190.63;5042270;28;19925;-76
2022/06/26 11:53:28;;;;;;;;;;;;;;;18.74;65.65;101189.72;5042609;28;19927;-75
2022/06/26 11:55:54;;;;;;;;;;;;;;;18.75;67.25;101194.03;5047360;28;19946;-76
2022/06/26 11:58:24;;;;;;;;;;;;;;;18.76;66.04;101194.91;5041352;28;19931;-76
2022/06/26 12:00:50;;;;;;;;;;;;;;;18.76;66.99;101206.28;5038600;28;19921;-76
2022/06/26 12:03:15;;;;;;;;;;;;;;;18.73;66.49;101205.56;5041850;28;19928;-76
2022/06/26 12:05:42;;;;;;;;;;;;;;;18.74;66.43;101200.25;5039175;28;19925;-76
2022/06/26 12:08:17;;;;;;;;;;;;;;;18.77;67.05;101196.63;5039013;28;19933;-76
2022/06/26 12:10:45;;;;;;;;;;;;;;;18.81;65.00;101192.91;5047706;28;19928;-76
2022/06/26 12:13:19;;;;;;;;;;;;;;;18.81;65.15;101185.84;5050260;28;19913;-79
2022/06/26 12:15:44;;;;;;;;;;;;;;;18.80;66.70;101189.44;5041143;28;19921;-79
2022/06/26 12:18:10;;;;;;;;;;;;;;;18.82;65.65;101195.47;5025939;28;19929;-79
2022/06/26 12:20:37;;;;;;;;;;;;;;;18.78;66.46;101198.34;5045895;28;19970;-79
2022/06/26 12:23:03;;;;;;;;;;;;;;;18.76;65.57;101193.13;5030225;28;20352;-76
2022/06/26 12:25:30;;;;;;;;;;;;;;;18.80;66.09;101196.47;5050323;28;19963;-76
2022/06/26 12:27:55;;;;;;;;;;;;;;;18.76;66.22;101203.66;5048287;28;20406;-76
2022/06/26 12:30:23;;;;;;;;;;;;;;;18.75;66.28;101209.00;5048346;28;19916;-76
2022/06/26 12:32:48;;;;;;;;;;;;;;;18.75;65.28;101209.84;5040059;28;19931;-76
2022/06/26 12:35:13;;;;;;;;;;;;;;;18.72;65.48;101211.78;5041259;28;20367;-78
2022/06/26 12:37:39;;;;;;;;;;;;;;;18.72;63.69;101204.72;5041979;28;20016;-78
2022/06/26 12:40:05;;;;;;;;;;;;;;;18.74;64.79;101208.16;5028316;28;19924;-78
2022/06/26 12:42:30;;;;;;;;;;;;;;;18.73;64.85;101206.44;5045992;28;19976;-78
2022/06/26 12:44:56;;;;;;;;;;;;;;;18.73;64.62;101206.44;5037908;28;19952;-78
2022/06/26 12:47:21;;;;;;;;;;;;;;;18.74;65.00;101208.16;5041212;28;19948;-78